createdAt,value
2023-02-16T00:02:10.422Z,98049.56
2023-02-16T00:04:37.959Z,98049.03
2023-02-16T00:07:05.526Z,98053.91
2023-02-16T00:09:34.129Z,98056.31
2023-02-16T00:12:01.745Z,98061.13
2023-02-16T00:14:29.335Z,98055.94
2023-02-16T00:16:59.689Z,98064.00
2023-02-16T00:19:40.615Z,98059.09
2023-02-16T00:22:09.231Z,98054.41
2023-02-16T00:24:37.777Z,98067.72
2023-02-16T00:27:13.412Z,98062.88
2023-02-16T00:29:41.007Z,98071.59
2023-02-16T00:32:10.644Z,98071.88
2023-02-16T00:34:39.288Z,98059.69
2023-02-16T00:37:10.959Z,98068.03
2023-02-16T00:39:39.499Z,98068.91
2023-02-16T00:42:29.203Z,98060.78
2023-02-16T00:44:57.809Z,98061.97
2023-02-16T00:47:45.079Z,98060.16
2023-02-16T00:50:35.167Z,98066.47
2023-02-16T00:53:02.768Z,98072.03
2023-02-16T00:55:32.380Z,98073.72
2023-02-16T00:57:59.326Z,98068.91
2023-02-16T01:00:34.603Z,98059.00
2023-02-16T01:03:04.198Z,98058.34
2023-02-16T01:05:31.793Z,98064.25
2023-02-16T01:07:59.386Z,98056.09
2023-02-16T01:10:26.983Z,98052.00
2023-02-16T01:12:54.611Z,98058.38
2023-02-16T01:15:23.194Z,98061.75
2023-02-16T01:17:50.810Z,98069.38
2023-02-16T01:20:20.472Z,98057.63
2023-02-16T01:22:48.000Z,98071.72
2023-02-16T01:25:16.654Z,98064.69
2023-02-16T01:27:44.216Z,98064.00
2023-02-16T01:30:19.875Z,98062.13
2023-02-16T01:32:48.449Z,98056.03
2023-02-16T01:35:16.049Z,98048.47
2023-02-16T01:37:43.627Z,98051.34
2023-02-16T01:40:28.306Z,98047.41
2023-02-16T01:42:57.910Z,98042.47
2023-02-16T01:45:35.531Z,98040.31
2023-02-16T01:48:07.133Z,98029.56
2023-02-16T01:50:43.562Z,98035.97
2023-02-16T01:53:20.410Z,98032.78
2023-02-16T01:55:49.005Z,98036.28
2023-02-16T01:58:20.693Z,98036.16
2023-02-16T02:00:53.926Z,98037.63
2023-02-16T02:03:25.041Z,98041.09
2023-02-16T02:05:54.009Z,98029.59
2023-02-16T02:08:33.093Z,98036.78
2023-02-16T02:11:26.770Z,98039.22
2023-02-16T02:14:16.486Z,98039.84
2023-02-16T02:16:56.090Z,98036.47
2023-02-16T02:19:24.672Z,98040.81
2023-02-16T02:22:14.378Z,98036.47
2023-02-16T02:24:49.979Z,98031.03
2023-02-16T02:27:25.619Z,98026.09
2023-02-16T02:30:16.050Z,98031.16
2023-02-16T02:32:50.224Z,98029.00
2023-02-16T02:35:23.789Z,98022.25
2023-02-16T02:37:59.187Z,98028.09
2023-02-16T02:41:05.232Z,98033.19
2023-02-16T02:43:40.625Z,98026.19
2023-02-16T02:46:23.304Z,98022.91
2023-02-16T02:48:50.891Z,98024.72
2023-02-16T02:51:18.479Z,98016.53
2023-02-16T02:53:52.088Z,98016.31
2023-02-16T02:56:19.683Z,98012.34
2023-02-16T02:58:47.286Z,98012.06
2023-02-16T03:01:15.020Z,98010.38
2023-02-16T03:03:46.121Z,98015.69
2023-02-16T03:06:24.134Z,98009.22
2023-02-16T03:08:55.717Z,98003.66
2023-02-16T03:11:24.314Z,98011.03
2023-02-16T03:14:02.971Z,98010.06
2023-02-16T03:16:46.101Z,98008.97
2023-02-16T03:19:16.253Z,98011.75
2023-02-16T03:21:44.894Z,98019.19
2023-02-16T03:24:14.466Z,98017.84
2023-02-16T03:26:45.926Z,98017.13
2023-02-16T03:29:13.653Z,98010.34
2023-02-16T03:31:41.266Z,98021.06
2023-02-16T03:34:08.801Z,98014.19
2023-02-16T03:36:38.408Z,98014.00
2023-02-16T03:39:07.522Z,98011.84
2023-02-16T03:41:35.611Z,98013.41
2023-02-16T03:44:04.209Z,98015.50
2023-02-16T03:46:31.807Z,98015.50
2023-02-16T03:48:59.380Z,98014.66
2023-02-16T03:51:26.976Z,98014.75
2023-02-16T03:53:55.563Z,98013.81
2023-02-16T03:56:23.166Z,98011.59
2023-02-16T03:58:50.758Z,98004.59
2023-02-16T04:01:18.367Z,98015.31
2023-02-16T04:03:45.994Z,98011.94
2023-02-16T04:06:13.589Z,98019.78
2023-02-16T04:08:41.190Z,98017.22
2023-02-16T04:11:08.767Z,98025.31
2023-02-16T04:13:36.373Z,98026.25
2023-02-16T04:16:03.961Z,98030.72
2023-02-16T04:18:31.557Z,98034.03
2023-02-16T04:20:58.194Z,98031.28
2023-02-16T04:23:24.854Z,98030.22
2023-02-16T04:25:52.341Z,98038.13
2023-02-16T04:28:19.940Z,98039.63
2023-02-16T04:30:47.596Z,98040.34
2023-02-16T04:33:15.184Z,98046.28
2023-02-16T04:35:42.758Z,98052.19
2023-02-16T04:38:10.365Z,98050.28
2023-02-16T04:40:37.952Z,98054.75
2023-02-16T04:43:05.525Z,98059.53
2023-02-16T04:45:33.147Z,98057.72
2023-02-16T04:48:00.709Z,98055.53
2023-02-16T04:50:30.341Z,98064.00
2023-02-16T04:52:57.938Z,98067.63
2023-02-16T04:55:25.596Z,98061.56
2023-02-16T04:57:54.134Z,98071.09
2023-02-16T05:00:22.731Z,98065.66
2023-02-16T05:02:50.321Z,98078.25
2023-02-16T05:05:16.990Z,98069.47
2023-02-16T05:07:43.743Z,98067.16
2023-02-16T05:10:11.111Z,98078.91
2023-02-16T05:12:38.689Z,98082.22
2023-02-16T05:15:06.302Z,98079.19
2023-02-16T05:17:33.908Z,98071.75
2023-02-16T05:20:01.485Z,98075.38
2023-02-16T05:22:29.133Z,98066.88
2023-02-16T05:24:57.669Z,98054.72
2023-02-16T05:27:26.273Z,98063.00
2023-02-16T05:29:53.911Z,98061.84
2023-02-16T05:32:21.476Z,98069.44
2023-02-16T05:34:49.068Z,98065.34
2023-02-16T05:37:17.669Z,98056.84
2023-02-16T05:39:44.358Z,98060.47
2023-02-16T05:42:11.118Z,98055.47
2023-02-16T05:44:37.756Z,98052.81
2023-02-16T05:47:04.495Z,98054.19
2023-02-16T05:49:31.225Z,98052.31
2023-02-16T05:51:57.874Z,98056.44
2023-02-16T05:54:24.518Z,98064.38
2023-02-16T05:56:51.612Z,98061.19
2023-02-16T05:59:18.255Z,98058.56
2023-02-16T06:01:44.917Z,98061.53
2023-02-16T06:04:12.008Z,98065.09
2023-02-16T06:06:39.014Z,98064.81
2023-02-16T06:09:06.432Z,98069.03
2023-02-16T06:11:33.072Z,98079.00
2023-02-16T06:13:59.727Z,98078.16
2023-02-16T06:16:26.972Z,98081.75
2023-02-16T06:18:54.003Z,98086.63
2023-02-16T06:21:21.152Z,98091.06
2023-02-16T06:23:47.874Z,98087.66
2023-02-16T06:26:14.874Z,98093.91
2023-02-16T06:28:41.507Z,98094.25
2023-02-16T06:31:08.441Z,98096.88
2023-02-16T06:33:35.141Z,98103.84
2023-02-16T06:36:01.761Z,98109.13
2023-02-16T06:38:28.406Z,98112.72
2023-02-16T06:40:55.061Z,98116.22
2023-02-16T06:43:21.733Z,98118.59
2023-02-16T06:45:48.397Z,98119.44
2023-02-16T06:48:15.031Z,98116.66
2023-02-16T06:50:41.657Z,98101.97
2023-02-16T06:53:08.323Z,98108.84
2023-02-16T06:55:34.971Z,98107.91
2023-02-16T06:58:01.788Z,98121.13
2023-02-16T07:00:28.468Z,98113.31
2023-02-16T07:02:56.120Z,98100.28
2023-02-16T07:05:22.763Z,98108.09
2023-02-16T07:07:49.415Z,98119.19
2023-02-16T07:10:16.056Z,98108.91
2023-02-16T07:12:42.686Z,98109.66
2023-02-16T07:15:09.610Z,98106.69
2023-02-16T07:17:36.274Z,98119.53
2023-02-16T07:20:03.185Z,98118.38
2023-02-16T07:22:29.817Z,98113.50
2023-02-16T07:24:56.461Z,98117.00
2023-02-16T07:27:23.725Z,98112.91
2023-02-16T07:29:50.402Z,98124.63
2023-02-16T07:32:17.076Z,98126.94
2023-02-16T07:34:44.213Z,98133.63
2023-02-16T07:37:10.836Z,98135.88
2023-02-16T07:39:37.456Z,98133.34
2023-02-16T07:42:04.098Z,98136.41
2023-02-16T07:44:30.748Z,98128.16
2023-02-16T07:46:57.416Z,98139.16
2023-02-16T07:49:24.057Z,98142.22
2023-02-16T07:51:50.683Z,98142.53
2023-02-16T07:54:17.296Z,98145.19
2023-02-16T07:56:43.956Z,98130.97
2023-02-16T07:59:10.619Z,98137.09
2023-02-16T08:01:37.487Z,98127.84
2023-02-16T08:04:04.139Z,98130.19
2023-02-16T08:06:30.784Z,98137.50
2023-02-16T08:08:57.458Z,98130.44
2023-02-16T08:11:24.756Z,98128.91
2023-02-16T08:13:51.907Z,98126.03
2023-02-16T08:16:20.298Z,98137.28
2023-02-16T08:18:46.972Z,98136.72
2023-02-16T08:21:15.045Z,98139.88
2023-02-16T08:23:46.983Z,98132.16
2023-02-16T08:26:14.943Z,98128.31
2023-02-16T08:28:41.605Z,98138.69
2023-02-16T08:31:08.262Z,98148.44
2023-02-16T08:33:34.900Z,98133.56
2023-02-16T08:36:01.578Z,98134.59
2023-02-16T08:38:28.267Z,98145.59
2023-02-16T08:40:54.901Z,98143.16
2023-02-16T08:43:21.658Z,98130.78
2023-02-16T08:45:48.739Z,98135.88
2023-02-16T08:48:15.605Z,98134.47
2023-02-16T08:50:48.373Z,98131.03
2023-02-16T08:53:15.047Z,98131.50
2023-02-16T08:55:41.706Z,98130.91
2023-02-16T08:58:08.358Z,98143.38
2023-02-16T09:00:35.056Z,98145.41
2023-02-16T09:03:01.690Z,98148.16
2023-02-16T09:05:28.361Z,98138.63
2023-02-16T09:07:55.117Z,98134.41
2023-02-16T09:10:22.320Z,98142.22
2023-02-16T09:12:49.368Z,98142.00
2023-02-16T09:15:16.221Z,98142.47
2023-02-16T09:17:43.175Z,98138.06
2023-02-16T09:20:10.365Z,98146.16
2023-02-16T09:22:37.485Z,98138.72
2023-02-16T09:25:04.189Z,98138.00
2023-02-16T09:27:31.208Z,98142.56
2023-02-16T09:29:57.926Z,98150.03
2023-02-16T09:32:28.570Z,98155.44
2023-02-16T09:34:55.231Z,98153.38
2023-02-16T09:37:21.880Z,98155.31
2023-02-16T09:39:48.857Z,98145.50
2023-02-16T09:42:21.510Z,98151.28
2023-02-16T09:44:50.532Z,98147.13
2023-02-16T09:47:21.341Z,98150.75
2023-02-16T09:49:47.973Z,98152.50
2023-02-16T09:52:38.039Z,98165.25
2023-02-16T09:55:11.853Z,98158.19
2023-02-16T09:57:55.807Z,98164.88
2023-02-16T10:00:34.464Z,98161.91
2023-02-16T10:03:47.050Z,98163.84
2023-02-16T10:06:13.584Z,98164.88
2023-02-16T10:08:45.791Z,98174.31
2023-02-16T10:11:39.199Z,98157.50
2023-02-16T10:14:07.553Z,98164.19
2023-02-16T10:16:40.943Z,98161.38
2023-02-16T10:19:18.132Z,98168.41
2023-02-16T10:21:44.816Z,98176.69
2023-02-16T10:24:11.515Z,98175.19
2023-02-16T10:26:41.239Z,98174.38
2023-02-16T10:29:11.608Z,98169.16
2023-02-16T10:31:56.487Z,98173.59
2023-02-16T10:34:55.792Z,98168.69
2023-02-16T10:37:36.603Z,98162.59
2023-02-16T10:40:29.396Z,98158.91
2023-02-16T10:43:05.042Z,98152.34
2023-02-16T10:45:51.960Z,98159.78
2023-02-16T10:48:19.948Z,98157.25
2023-02-16T10:50:55.979Z,98161.44
2023-02-16T10:53:31.097Z,98150.66
2023-02-16T10:55:58.423Z,98154.19
2023-02-16T10:58:38.736Z,98143.75
2023-02-16T11:01:14.967Z,98147.59
2023-02-16T11:03:51.668Z,98145.06
2023-02-16T11:06:24.054Z,98150.22
2023-02-16T11:08:52.484Z,98144.16
2023-02-16T11:11:19.311Z,98141.63
2023-02-16T11:13:49.329Z,98131.16
2023-02-16T11:16:20.742Z,98130.09
2023-02-16T11:18:49.153Z,98143.69
2023-02-16T11:21:15.956Z,98133.31
2023-02-16T11:23:43.232Z,98130.81
2023-02-16T11:26:09.784Z,98132.63
2023-02-16T11:28:36.281Z,98135.97
2023-02-16T11:31:30.526Z,98133.81
2023-02-16T11:34:12.912Z,98125.06
2023-02-16T11:36:40.731Z,98119.13
2023-02-16T11:39:21.511Z,98118.59
2023-02-16T11:41:49.015Z,98124.38
2023-02-16T11:44:30.911Z,98130.19
2023-02-16T11:46:57.563Z,98121.66
2023-02-16T11:49:33.251Z,98120.25
2023-02-16T11:51:59.985Z,98126.88
2023-02-16T11:54:26.677Z,98122.03
2023-02-16T11:57:06.548Z,98122.84
2023-02-16T11:59:36.286Z,98115.28
2023-02-16T12:02:14.465Z,98111.28
2023-02-16T12:04:46.981Z,98105.72
2023-02-16T12:07:40.444Z,98100.56
2023-02-16T12:10:21.219Z,98097.28
2023-02-16T12:13:18.600Z,98094.59
2023-02-16T12:15:48.553Z,98089.78
2023-02-16T12:18:24.661Z,98096.53
2023-02-16T12:20:56.794Z,98094.84
2023-02-16T12:23:36.809Z,98094.84
2023-02-16T12:26:36.306Z,98098.38
2023-02-16T12:29:30.316Z,98089.72
2023-02-16T12:32:10.870Z,98076.59
2023-02-16T12:34:42.345Z,98079.84
2023-02-16T12:37:36.475Z,98089.41
2023-02-16T12:40:40.591Z,98088.81
2023-02-16T12:43:32.427Z,98083.03
2023-02-16T12:46:24.043Z,98072.25
2023-02-16T12:48:53.417Z,98069.50
2023-02-16T12:51:38.606Z,98064.06
2023-02-16T12:54:09.215Z,98063.28
2023-02-16T12:56:46.543Z,98056.47
2023-02-16T12:59:41.481Z,98056.25
2023-02-16T13:02:23.416Z,98052.72
2023-02-16T13:04:56.097Z,98049.66
2023-02-16T13:07:29.437Z,98042.16
2023-02-16T13:10:25.038Z,98044.00
2023-02-16T13:13:05.696Z,98036.94
2023-02-16T13:15:37.735Z,98036.94
2023-02-16T13:18:30.994Z,98036.78
2023-02-16T13:21:11.010Z,98031.59
2023-02-16T13:23:58.364Z,98016.97
2023-02-16T13:26:49.450Z,98014.19
2023-02-16T13:29:42.402Z,98009.53
2023-02-16T13:32:34.829Z,98014.88
2023-02-16T13:35:04.799Z,98003.38
2023-02-16T13:37:41.864Z,98004.94
2023-02-16T13:40:41.857Z,97995.91
2023-02-16T13:43:18.033Z,97985.03
2023-02-16T13:45:45.940Z,97981.50
2023-02-16T13:48:21.733Z,97980.34
2023-02-16T13:50:54.778Z,97984.09
2023-02-16T13:53:21.490Z,97984.03
2023-02-16T13:55:48.237Z,97976.88
2023-02-16T13:58:14.722Z,97972.38
2023-02-16T14:00:49.967Z,97973.72
2023-02-16T14:03:16.481Z,97977.41
2023-02-16T14:05:44.645Z,97961.13
2023-02-16T14:08:25.418Z,97961.88
2023-02-16T14:10:51.954Z,97961.88
2023-02-16T14:13:24.803Z,97959.34
2023-02-16T14:15:51.882Z,97963.56
2023-02-16T14:18:32.315Z,97966.59
2023-02-16T14:21:03.530Z,97976.00
2023-02-16T14:23:31.188Z,97971.25
2023-02-16T14:26:02.364Z,97962.41
2023-02-16T14:28:32.055Z,97958.94
2023-02-16T14:31:02.329Z,97957.09
2023-02-16T14:33:38.826Z,97971.22
2023-02-16T14:36:19.255Z,97967.53
2023-02-16T14:38:48.869Z,97972.34
2023-02-16T14:41:29.360Z,97964.84
2023-02-16T14:44:04.683Z,97968.13
2023-02-16T14:47:02.288Z,97964.84
2023-02-16T14:49:50.511Z,97967.16
2023-02-16T14:52:25.945Z,97968.66
2023-02-16T14:55:30.066Z,97968.28
2023-02-16T14:58:01.551Z,97958.50
2023-02-16T15:00:31.547Z,97955.09
2023-02-16T15:03:02.181Z,97954.44
2023-02-16T15:05:34.239Z,97962.41
2023-02-16T15:08:09.662Z,97950.06
2023-02-16T15:10:37.474Z,97953.44
2023-02-16T15:13:04.128Z,97948.94
2023-02-16T15:15:43.887Z,97945.13
2023-02-16T15:18:15.566Z,97953.69
2023-02-16T15:20:43.312Z,97947.31
2023-02-16T15:23:29.814Z,97950.19
2023-02-16T15:26:16.545Z,97942.63
2023-02-16T15:28:43.617Z,97939.06
2023-02-16T15:31:15.416Z,97940.34
2023-02-16T15:33:42.789Z,97923.81
2023-02-16T15:36:12.813Z,97936.78
2023-02-16T15:38:43.596Z,97925.97
2023-02-16T15:41:13.663Z,97944.31
2023-02-16T15:43:43.133Z,97944.25
2023-02-16T15:46:32.080Z,97942.94
2023-02-16T15:48:59.310Z,97943.66
2023-02-16T15:51:30.008Z,97948.69
2023-02-16T15:54:01.251Z,97950.94
2023-02-16T15:56:27.739Z,97952.69
2023-02-16T15:58:58.431Z,97951.38
2023-02-16T16:01:31.949Z,97942.97
2023-02-16T16:04:21.566Z,97944.19
2023-02-16T16:06:48.646Z,97947.41
2023-02-16T16:09:25.029Z,97963.38
2023-02-16T16:11:53.560Z,97965.41
2023-02-16T16:14:20.354Z,97960.09
2023-02-16T16:16:47.008Z,97961.06
2023-02-16T16:19:21.824Z,97959.25
2023-02-16T16:21:53.137Z,97961.56
2023-02-16T16:24:38.451Z,97956.69
2023-02-16T16:27:10.694Z,97959.06
2023-02-16T16:29:45.062Z,97950.41
2023-02-16T16:32:19.402Z,97953.09
2023-02-16T16:34:46.200Z,97945.34
2023-02-16T16:37:28.757Z,97941.59
2023-02-16T16:40:04.633Z,97946.53
2023-02-16T16:42:31.342Z,97947.69
2023-02-16T16:45:01.649Z,97948.56
2023-02-16T16:47:40.869Z,97942.41
2023-02-16T16:50:10.410Z,97940.03
2023-02-16T16:52:44.072Z,97942.97
2023-02-16T16:55:20.220Z,97942.69
2023-02-16T16:57:47.645Z,97942.00
2023-02-16T17:00:14.732Z,97948.06
2023-02-16T17:02:41.368Z,97945.25
2023-02-16T17:05:08.429Z,97950.44
2023-02-16T17:07:35.266Z,97956.50
2023-02-16T17:10:01.936Z,97957.25
2023-02-16T17:12:28.584Z,97954.00
2023-02-16T17:14:55.271Z,97959.78
2023-02-16T17:17:21.906Z,97961.03
2023-02-16T17:19:48.552Z,97962.03
2023-02-16T17:22:17.147Z,97966.38
2023-02-16T17:24:44.139Z,97964.28
2023-02-16T17:27:10.799Z,97973.31
2023-02-16T17:29:38.204Z,97966.97
2023-02-16T17:32:05.175Z,97974.28
2023-02-16T17:34:35.493Z,97976.53
2023-02-16T17:37:03.735Z,97972.06
2023-02-16T17:39:30.529Z,97973.97
2023-02-16T17:41:57.278Z,97980.97
2023-02-16T17:44:23.920Z,97977.63
2023-02-16T17:46:50.590Z,97982.41
2023-02-16T17:49:17.248Z,97991.69
2023-02-16T17:51:43.919Z,97982.94
2023-02-16T17:54:10.549Z,97977.19
2023-02-16T17:56:37.841Z,97982.25
2023-02-16T17:59:04.499Z,97987.72
2023-02-16T18:01:31.179Z,97983.50
2023-02-16T18:03:57.870Z,97992.22
2023-02-16T18:06:25.912Z,97989.25
2023-02-16T18:08:53.620Z,97989.25
2023-02-16T18:11:20.293Z,97992.53
2023-02-16T18:13:46.926Z,97991.41
2023-02-16T18:16:14.984Z,97975.94
2023-02-16T18:18:41.641Z,97982.25
2023-02-16T18:21:08.310Z,97984.63
2023-02-16T18:23:35.022Z,97992.50
2023-02-16T18:26:01.657Z,97991.59
2023-02-16T18:28:30.003Z,97999.84
2023-02-16T18:30:57.034Z,98005.16
2023-02-16T18:33:23.763Z,98004.03
2023-02-16T18:35:54.905Z,98006.41
2023-02-16T18:38:22.253Z,98020.16
2023-02-16T18:40:49.080Z,98020.88
2023-02-16T18:43:15.752Z,98022.41
2023-02-16T18:45:42.423Z,98029.03
2023-02-16T18:48:09.085Z,98020.41
2023-02-16T18:50:35.779Z,98022.94
2023-02-16T18:53:02.502Z,98025.63
2023-02-16T18:55:29.160Z,98029.13
2023-02-16T18:57:55.828Z,98032.75
2023-02-16T19:00:22.620Z,98041.19
2023-02-16T19:02:49.317Z,98041.47
2023-02-16T19:05:16.028Z,98046.22
2023-02-16T19:07:42.807Z,98035.84
2023-02-16T19:10:09.657Z,98041.16
2023-02-16T19:12:39.600Z,98031.00
2023-02-16T19:15:07.160Z,98032.97
2023-02-16T19:17:34.126Z,98040.16
2023-02-16T19:20:00.785Z,98031.41
2023-02-16T19:22:27.445Z,98042.75
2023-02-16T19:24:54.166Z,98043.53
2023-02-16T19:27:21.206Z,98047.03
2023-02-16T19:29:47.903Z,98053.22
2023-02-16T19:32:14.596Z,98057.09
2023-02-16T19:34:41.250Z,98056.19
2023-02-16T19:37:07.969Z,98070.06
2023-02-16T19:39:35.050Z,98066.38
2023-02-16T19:42:01.780Z,98066.88
2023-02-16T19:44:28.494Z,98074.88
2023-02-16T19:46:55.224Z,98072.06
2023-02-16T19:49:21.917Z,98076.81
2023-02-16T19:51:48.552Z,98069.09
2023-02-16T19:54:15.197Z,98066.63
2023-02-16T19:56:41.833Z,98074.28
2023-02-16T19:59:09.159Z,98073.81
2023-02-16T20:01:35.879Z,98087.22
2023-02-16T20:04:02.654Z,98088.06
2023-02-16T20:06:31.314Z,98086.63
2023-02-16T20:08:58.837Z,98093.28
2023-02-16T20:11:25.937Z,98093.97
2023-02-16T20:13:52.610Z,98104.03
2023-02-16T20:16:19.526Z,98101.91
2023-02-16T20:18:46.262Z,98106.84
2023-02-16T20:21:14.952Z,98103.31
2023-02-16T20:23:41.931Z,98115.22
2023-02-16T20:26:11.000Z,98117.47
2023-02-16T20:28:37.654Z,98115.66
2023-02-16T20:31:09.423Z,98112.66
2023-02-16T20:33:36.098Z,98116.84
2023-02-16T20:36:03.207Z,98113.16
2023-02-16T20:38:30.192Z,98109.75
2023-02-16T20:40:56.901Z,98106.31
2023-02-16T20:43:23.690Z,98104.09
2023-02-16T20:45:50.377Z,98107.38
2023-02-16T20:48:17.045Z,98112.78
2023-02-16T20:50:43.723Z,98110.22
2023-02-16T20:53:10.392Z,98120.78
2023-02-16T20:55:37.062Z,98111.50
2023-02-16T20:58:03.746Z,98110.53
2023-02-16T21:00:30.606Z,98109.09
2023-02-16T21:02:57.255Z,98110.66
2023-02-16T21:05:24.220Z,98101.50
2023-02-16T21:07:50.891Z,98105.97
2023-02-16T21:10:17.543Z,98107.41
2023-02-16T21:12:44.313Z,98106.59
2023-02-16T21:15:11.019Z,98103.00
2023-02-16T21:17:37.697Z,98104.16
2023-02-16T21:20:05.824Z,98113.97
2023-02-16T21:22:32.678Z,98109.47
2023-02-16T21:24:59.456Z,98112.00
2023-02-16T21:27:26.122Z,98107.78
2023-02-16T21:29:52.780Z,98108.06
2023-02-16T21:32:19.444Z,98107.97
2023-02-16T21:34:46.196Z,98110.66
2023-02-16T21:37:12.889Z,98116.13
2023-02-16T21:39:39.557Z,98108.38
2023-02-16T21:42:06.231Z,98112.25
2023-02-16T21:44:32.929Z,98101.75
2023-02-16T21:46:59.561Z,98108.75
2023-02-16T21:49:26.193Z,98101.75
2023-02-16T21:51:52.889Z,98105.72
2023-02-16T21:54:19.612Z,98100.06
2023-02-16T21:56:49.359Z,98100.78
2023-02-16T21:59:17.003Z,98101.44
2023-02-16T22:01:45.314Z,98099.66
2023-02-16T22:04:13.626Z,98104.16
2023-02-16T22:06:41.972Z,98108.63
2023-02-16T22:09:10.617Z,98113.50
2023-02-16T22:11:37.350Z,98115.09
2023-02-16T22:14:03.977Z,98117.38
2023-02-16T22:16:31.214Z,98112.03
2023-02-16T22:19:08.477Z,98128.97
2023-02-16T22:21:36.100Z,98118.91
2023-02-16T22:24:02.750Z,98125.97
2023-02-16T22:26:30.558Z,98120.50
2023-02-16T22:28:57.428Z,98130.53
2023-02-16T22:31:25.529Z,98126.91
2023-02-16T22:34:01.859Z,98130.34
2023-02-16T22:36:28.552Z,98133.31
2023-02-16T22:38:55.262Z,98135.63
2023-02-16T22:41:22.011Z,98141.19
2023-02-16T22:43:52.360Z,98144.22
2023-02-16T22:46:19.217Z,98142.28
2023-02-16T22:48:45.860Z,98142.88
2023-02-16T22:51:13.288Z,98138.69
2023-02-16T22:53:39.920Z,98134.34
2023-02-16T22:56:07.672Z,98141.22
2023-02-16T22:58:34.685Z,98151.78
2023-02-16T23:01:01.448Z,98151.16
2023-02-16T23:03:28.347Z,98138.81
2023-02-16T23:05:55.034Z,98129.13
2023-02-16T23:08:21.919Z,98131.41
2023-02-16T23:10:48.676Z,98130.69
2023-02-16T23:13:15.317Z,98131.22
2023-02-16T23:15:41.971Z,98134.84
2023-02-16T23:18:08.635Z,98138.25
2023-02-16T23:20:35.285Z,98139.59
2023-02-16T23:23:02.069Z,98149.41
2023-02-16T23:25:28.717Z,98142.38
2023-02-16T23:27:55.370Z,98142.25
2023-02-16T23:30:22.006Z,98143.63
2023-02-16T23:32:48.654Z,98139.28
2023-02-16T23:35:15.298Z,98141.94
2023-02-16T23:37:41.947Z,98145.53
2023-02-16T23:40:08.882Z,98142.53
2023-02-16T23:42:35.514Z,98139.50
2023-02-16T23:45:02.173Z,98145.91
2023-02-16T23:47:28.809Z,98132.13
2023-02-16T23:49:55.418Z,98142.44
2023-02-16T23:52:22.038Z,98134.34
2023-02-16T23:54:48.653Z,98142.44
2023-02-16T23:57:15.285Z,98139.16
2023-02-16T23:59:41.926Z,98142.91
